Carlsbad, California
Current Conditions -  °F | °C
As of 11:52 PM on Monday 26 Jan 2015 (Local Time) from KOKB Reporting Station
Few Clouds Few Clouds  
Wind Chill: 53°   Ceiling: Unl
Heat Index: 53°   Visibility: 10mi
Dew Point: 50°   Wind: 0mph
Humidity: 89%   Direction: NA
Pressure: 30.1"   Gusts: NA
Location:  33.17°N, 117.33°W
Report Text: KOKB 270752Z AUTO 00000KT 10SM FEW100 12/10 A3010 RMK AO2 SLP190 T01170100 402280100
Loading
Personal Weather Stations






























Interactive Weather Map New forecast layout! Learn more

10-Day Weather Forecast

Advertisements
Track Severe Weather on mobile